Time;durP1;ratioP1;P1;durP2;ratioP2;P2;SDS_P1;SDS_P2;PMS_P1;PMS_P2;Temp;Humidity;BMP_temperature;BMP_pressure;BME280_temperature;BME280_humidity;BME280_pressure;Samples;Min_cycle;Max_cycle;Signal;HPM_P1;HPM_P2
2023/08/17 00:01:02;;;;;;;3.97;2.20;;;;;;;18.85;83.18;101881.91;5104767;28;20069;-49
2023/08/17 00:03:28;;;;;;;4.30;2.60;;;;;;;18.84;83.36;101885.59;5103842;28;20102;-50
2023/08/17 00:05:53;;;;;;;4.25;2.17;;;;;;;18.80;83.47;101886.88;5103978;28;20115;-49
2023/08/17 00:08:18;;;;;;;5.00;1.90;;;;;;;18.79;83.27;101881.63;5105096;28;20419;-49
2023/08/17 00:10:44;;;;;;;7.20;2.70;;;;;;;18.76;83.44;101871.16;5105881;28;20276;-50
2023/08/17 00:13:09;;;;;;;5.50;2.10;;;;;;;18.76;83.39;101879.22;5103495;28;20173;-49
2023/08/17 00:15:34;;;;;;;3.78;2.00;;;;;;;18.75;83.65;101872.13;5099898;28;20024;-50
2023/08/17 00:17:59;;;;;;;5.85;2.20;;;;;;;18.71;83.47;101870.75;5097607;28;20092;-50
2023/08/17 00:20:25;;;;;;;3.80;2.22;;;;;;;18.70;84.22;101877.94;5105993;28;20073;-50
2023/08/17 00:22:50;;;;;;;5.38;2.83;;;;;;;18.68;84.26;101874.56;5105469;28;20031;-50
2023/08/17 00:25:16;;;;;;;4.27;2.30;;;;;;;18.66;84.57;101880.09;5100286;28;20496;-50
2023/08/17 00:27:41;;;;;;;5.60;2.47;;;;;;;18.61;84.32;101870.75;5101695;28;20273;-50
2023/08/17 00:30:07;;;;;;;5.10;1.98;;;;;;;18.62;84.30;101875.16;5101660;28;20032;-50
2023/08/17 00:32:32;;;;;;;7.97;2.20;;;;;;;18.61;83.92;101870.75;5101661;28;20055;-49
2023/08/17 00:34:57;;;;;;;5.63;2.17;;;;;;;18.60;84.09;101866.38;5100379;28;20027;-51
2023/08/17 00:37:23;;;;;;;7.88;2.42;;;;;;;18.51;84.25;101864.56;5098357;28;20027;-51
2023/08/17 00:39:48;;;;;;;4.95;2.20;;;;;;;18.53;84.24;101870.63;5102496;28;20040;-49
2023/08/17 00:42:13;;;;;;;3.33;2.25;;;;;;;18.48;84.73;101873.75;5101012;28;20422;-50
2023/08/17 00:44:38;;;;;;;5.75;2.67;;;;;;;18.50;84.57;101871.75;5105656;28;20445;-49
2023/08/17 00:47:04;;;;;;;6.30;2.33;;;;;;;18.46;84.24;101871.22;5103741;28;20048;-50
2023/08/17 00:49:30;;;;;;;4.10;2.67;;;;;;;18.44;84.50;101872.34;5097019;28;20028;-49
2023/08/17 00:51:56;;;;;;;6.55;2.40;;;;;;;18.39;84.81;101871.94;5104912;28;20035;-49
2023/08/17 00:54:25;;;;;;;4.60;2.50;;;;;;;18.36;84.84;101877.59;5103392;28;20102;-49
2023/08/17 00:56:52;;;;;;;5.50;2.15;;;;;;;18.35;84.99;101878.59;5094794;28;20016;-49
2023/08/17 00:59:17;;;;;;;3.78;2.33;;;;;;;18.34;84.80;101882.28;5103835;27;20023;-50
2023/08/17 01:01:43;;;;;;;4.35;2.25;;;;;;;18.33;84.86;101892.19;5106193;28;20024;-49
2023/08/17 01:04:09;;;;;;;6.15;2.25;;;;;;;18.31;84.99;101891.47;5098528;28;20474;-49
2023/08/17 01:06:34;;;;;;;2.78;2.10;;;;;;;18.33;84.85;101885.97;5104219;28;20024;-50
2023/08/17 01:08:59;;;;;;;4.63;2.13;;;;;;;18.31;84.85;101894.16;5099667;28;20424;-49
2023/08/17 01:11:32;;;;;;;5.43;2.22;;;;;;;18.30;85.02;101890.63;5097479;28;20596;-51
2023/08/17 01:14:04;;;;;;;5.32;2.30;;;;;;;18.28;85.32;101881.84;5103022;28;20028;-50
2023/08/17 01:16:38;;;;;;;7.78;2.45;;;;;;;18.25;85.56;101876.78;5099621;28;20024;-50
2023/08/17 01:19:08;;;;;;;5.72;2.20;;;;;;;18.22;85.57;101877.06;5094952;28;20160;-48
2023/08/17 01:21:42;;;;;;;5.05;2.33;;;;;;;18.21;85.72;101878.03;5104723;28;20016;-49
2023/08/17 01:24:08;;;;;;;4.82;2.20;;;;;;;18.20;85.79;101881.72;5101342;28;20032;-48
2023/08/17 01:26:33;;;;;;;6.45;2.00;;;;;;;18.21;85.90;101872.66;5103612;28;20458;-49
2023/08/17 01:28:59;;;;;;;4.25;2.17;;;;;;;18.17;86.02;101876.63;5104743;28;20374;-49
2023/08/17 01:31:50;;;;;;;4.50;2.55;;;;;;;18.18;85.62;101877.47;5102081;28;20119;-49
2023/08/17 01:34:23;;;;;;;5.38;2.28;;;;;;;18.17;85.72;101867.69;5096157;28;20127;-50
2023/08/17 01:36:58;;;;;;;4.72;2.47;;;;;;;18.15;85.84;101861.63;5095921;28;20075;-49
2023/08/17 01:39:30;;;;;;;6.65;2.58;;;;;;;18.11;85.71;101866.44;5104754;28;20109;-49
2023/08/17 01:41:58;;;;;;;7.95;2.97;;;;;;;18.11;86.11;101861.06;5101091;28;20042;-50
2023/08/17 01:44:25;;;;;;;3.30;2.17;;;;;;;18.08;86.98;101866.72;5103754;28;20032;-49
2023/08/17 01:46:51;;;;;;;4.68;2.25;;;;;;;18.08;87.09;101862.19;5101374;28;20050;-49
2023/08/17 01:49:16;;;;;;;4.47;2.40;;;;;;;18.04;86.86;101857.25;5101485;28;20027;-49
2023/08/17 01:51:41;;;;;;;7.55;2.67;;;;;;;18.04;87.32;101852.72;5103129;28;20069;-49
2023/08/17 01:54:07;;;;;;;7.18;2.35;;;;;;;17.99;87.47;101852.28;5098274;28;20039;-51
2023/08/17 01:56:32;;;;;;;5.95;2.40;;;;;;;17.96;87.74;101851.72;5099659;28;20113;-49
2023/08/17 01:58:58;;;;;;;6.40;2.40;;;;;;;17.98;87.26;101855.13;5101971;28;20523;-48
2023/08/17 02:01:23;;;;;;;6.78;2.70;;;;;;;17.95;87.35;101858.94;5101692;28;20020;-49
2023/08/17 02:03:48;;;;;;;5.25;2.30;;;;;;;17.93;88.13;101853.69;5101327;28;20038;-49
2023/08/17 02:06:14;;;;;;;5.88;2.47;;;;;;;17.91;87.84;101855.69;5099371;28;20019;-49
2023/08/17 02:08:39;;;;;;;5.95;2.70;;;;;;;17.92;88.04;101861.94;5101867;28;20106;-49
2023/08/17 02:11:04;;;;;;;7.03;2.47;;;;;;;17.89;87.85;101868.41;5099207;28;20028;-48
2023/08/17 02:13:30;;;;;;;4.70;2.50;;;;;;;17.87;88.66;101866.84;5100148;28;20114;-49
2023/08/17 02:15:55;;;;;;;3.95;2.35;;;;;;;17.88;88.18;101869.41;5100338;28;20079;-49
2023/08/17 02:18:20;;;;;;;4.95;2.80;;;;;;;17.89;87.99;101867.56;5104349;28;20358;-49
2023/08/17 02:20:45;;;;;;;5.30;2.53;;;;;;;17.88;88.19;101869.41;5099470;28;20110;-49
2023/08/17 02:23:11;;;;;;;8.00;2.50;;;;;;;17.86;88.17;101865.97;5102408;28;20440;-49
2023/08/17 02:25:40;;;;;;;5.60;2.50;;;;;;;17.88;88.17;101872.09;5100809;28;20040;-49
2023/08/17 02:28:05;;;;;;;6.03;2.60;;;;;;;17.88;88.57;101868.56;5103708;28;20024;-49
2023/08/17 02:30:30;;;;;;;5.68;2.55;;;;;;;17.85;87.57;101868.78;5099248;28;20092;-49
2023/08/17 02:32:56;;;;;;;3.92;2.35;;;;;;;17.84;87.73;101867.97;5097327;28;20032;-49
2023/08/17 02:35:22;;;;;;;8.95;3.15;;;;;;;17.85;87.91;101868.78;5104262;28;20030;-49
2023/08/17 02:37:47;;;;;;;5.72;2.20;;;;;;;17.85;87.44;101866.97;5098911;28;20027;-49
2023/08/17 02:40:12;;;;;;;4.32;2.35;;;;;;;17.84;87.25;101865.28;5100421;28;20076;-50
2023/08/17 02:42:39;;;;;;;5.75;2.30;;;;;;;17.84;87.57;101856.38;5101099;28;20069;-50
2023/08/17 02:45:06;;;;;;;5.57;2.22;;;;;;;17.85;87.23;101861.59;5099830;28;20052;-50
2023/08/17 02:47:31;;;;;;;6.65;2.35;;;;;;;17.82;87.63;101859.19;5102883;28;20088;-50
2023/08/17 02:49:56;;;;;;;5.00;2.58;;;;;;;17.80;87.98;101857.63;5099157;28;20112;-49
2023/08/17 02:52:22;;;;;;;5.60;2.60;;;;;;;17.79;87.91;101854.09;5097849;28;20020;-49
2023/08/17 02:54:47;;;;;;;7.18;2.63;;;;;;;17.82;87.32;101858.31;5100328;28;20020;-50
2023/08/17 02:57:12;;;;;;;6.65;2.67;;;;;;;17.75;87.83;101855.34;5098562;28;20085;-50
2023/08/17 02:59:38;;;;;;;5.95;2.30;;;;;;;17.76;87.77;101852.53;5103816;28;20105;-50
2023/08/17 03:02:03;;;;;;;5.47;2.72;;;;;;;17.76;87.16;101852.53;5099972;28;20489;-51
2023/08/17 03:04:28;;;;;;;6.82;2.58;;;;;;;17.78;87.63;101848.84;5101366;28;20026;-50
2023/08/17 03:06:54;;;;;;;3.67;2.33;;;;;;;17.74;86.60;101851.81;5100676;28;20103;-49
2023/08/17 03:09:19;;;;;;;5.72;2.85;;;;;;;17.75;86.53;101853.53;5101487;28;20055;-49
2023/08/17 03:11:44;;;;;;;4.57;2.30;;;;;;;17.74;86.98;101846.44;5102158;28;20028;-50
2023/08/17 03:14:09;;;;;;;4.57;2.42;;;;;;;17.72;87.03;101842.22;5100833;28;20082;-49
2023/08/17 03:16:35;;;;;;;6.75;2.40;;;;;;;17.70;86.25;101842.34;5099062;28;20031;-51
2023/08/17 03:19:00;;;;;;;3.35;2.20;;;;;;;17.72;86.38;101848.44;5100213;28;20026;-49
2023/08/17 03:21:26;;;;;;;8.00;2.25;;;;;;;17.69;86.93;101847.88;5101896;28;20032;-52
2023/08/17 03:23:52;;;;;;;5.00;2.28;;;;;;;17.68;87.44;101846.16;5102972;28;20024;-51
2023/08/17 03:26:17;;;;;;;7.07;2.50;;;;;;;17.67;87.75;101848.00;5099572;28;20032;-50
2023/08/17 03:28:42;;;;;;;3.50;2.05;;;;;;;17.69;87.29;101846.03;5101698;28;20020;-50
2023/08/17 03:31:08;;;;;;;4.65;2.17;;;;;;;17.66;87.61;101843.59;5100640;28;20028;-49
2023/08/17 03:33:34;;;;;;;3.22;2.20;;;;;;;17.68;87.84;101844.31;5099390;28;20020;-49
2023/08/17 03:35:59;;;;;;;7.85;2.60;;;;;;;17.69;87.78;101847.88;5102832;28;20034;-49
2023/08/17 03:38:25;;;;;;;6.28;2.40;;;;;;;17.71;87.76;101849.41;5100173;28;20028;-49
2023/08/17 03:40:50;;;;;;;7.22;2.30;;;;;;;17.68;88.30;101843.47;5102917;28;20027;-50
2023/08/17 03:43:15;;;;;;;5.55;2.38;;;;;;;17.68;88.19;101838.94;5093918;28;20641;-49
2023/08/17 03:45:42;;;;;;;4.07;2.13;;;;;;;17.69;88.10;101840.66;5103668;28;20035;-49
2023/08/17 03:48:08;;;;;;;3.50;2.20;;;;;;;17.66;87.80;101838.22;5092910;28;20025;-50
2023/08/17 03:50:33;;;;;;;3.45;2.15;;;;;;;17.63;88.38;101840.34;5099058;28;20055;-48
2023/08/17 03:52:58;;;;;;;4.40;2.38;;;;;;;17.66;88.24;101846.28;5099536;28;20032;-50
2023/08/17 03:55:24;;;;;;;4.30;2.53;;;;;;;17.61;87.78;101842.34;5099354;28;20031;-51
2023/08/17 03:57:50;;;;;;;5.70;2.55;;;;;;;17.62;87.86;101842.19;5094571;28;20442;-50
2023/08/17 04:00:15;;;;;;;5.28;2.47;;;;;;;17.55;88.02;101849.09;5103213;28;20011;-49
2023/08/17 04:02:41;;;;;;;5.68;2.40;;;;;;;17.56;87.74;101854.34;5098343;28;20123;-49
2023/08/17 04:05:06;;;;;;;7.72;2.75;;;;;;;17.51;88.62;101851.22;5102952;28;20032;-49
2023/08/17 04:07:32;;;;;;;7.55;2.70;;;;;;;17.48;88.88;101862.22;5105787;28;20028;-49
2023/08/17 04:09:57;;;;;;;5.07;2.80;;;;;;;17.50;88.35;101865.66;5099506;28;20107;-50
2023/08/17 04:12:23;;;;;;;6.35;2.90;;;;;;;17.48;88.67;101875.66;5102087;28;20101;-49
2023/08/17 04:14:48;;;;;;;5.70;3.05;;;;;;;17.45;88.71;101870.56;5103501;28;20388;-49
2023/08/17 04:17:13;;;;;;;8.68;2.78;;;;;;;17.44;88.44;101871.56;5105592;28;20027;-49
2023/08/17 04:19:39;;;;;;;8.88;2.95;;;;;;;17.43;88.92;101869.03;5100977;28;20119;-49
2023/08/17 04:22:04;;;;;;;7.45;2.90;;;;;;;17.45;88.62;101875.09;5087195;28;20052;-49
2023/08/17 04:24:29;;;;;;;6.18;2.72;;;;;;;17.41;89.13;101873.69;5107322;28;20026;-50
2023/08/17 04:26:55;;;;;;;7.30;2.60;;;;;;;17.38;88.98;101872.09;5099895;28;20027;-53
2023/08/17 04:29:20;;;;;;;6.35;2.55;;;;;;;17.37;89.28;101875.78;5103035;28;20035;-49
2023/08/17 04:31:46;;;;;;;4.85;2.67;;;;;;;17.34;89.42;101874.22;5103088;28;20023;-49
2023/08/17 04:34:11;;;;;;;6.57;2.47;;;;;;;17.30;89.36;101885.38;5106016;28;20020;-49
2023/08/17 04:36:36;;;;;;;5.95;2.53;;;;;;;17.30;89.72;101882.69;5103693;28;20024;-50
2023/08/17 04:39:04;;;;;;;4.80;2.60;;;;;;;17.26;89.61;101881.28;5102625;28;20028;-49
2023/08/17 04:41:29;;;;;;;3.75;2.40;;;;;;;17.23;89.87;101878.84;5100952;28;20024;-50
2023/08/17 04:43:54;;;;;;;5.47;2.60;;;;;;;17.24;89.40;101880.56;5101993;28;20024;-49
2023/08/17 04:46:20;;;;;;;5.43;2.40;;;;;;;17.24;89.51;101876.03;5102970;28;20125;-49
2023/08/17 04:48:45;;;;;;;7.32;2.28;;;;;;;17.20;89.69;101874.59;5101264;28;20032;-49
2023/08/17 04:51:10;;;;;;;5.53;2.50;;;;;;;17.19;89.65;101876.44;5106453;28;20024;-49
2023/08/17 04:53:36;;;;;;;5.15;2.38;;;;;;;17.16;89.40;101873.19;5100947;28;20023;-49
2023/08/17 04:56:02;;;;;;;7.03;2.70;;;;;;;17.12;89.49;101869.91;5103510;28;20081;-49
2023/08/17 04:58:27;;;;;;;7.90;3.00;;;;;;;17.13;89.64;101868.91;5099164;28;20020;-50
2023/08/17 05:00:53;;;;;;;7.38;2.80;;;;;;;17.14;89.50;101872.47;5102448;28;20034;-49
2023/08/17 05:03:18;;;;;;;6.10;2.47;;;;;;;17.11;89.55;101875.41;5098115;28;20374;-50
2023/08/17 05:05:43;;;;;;;6.95;2.17;;;;;;;17.09;89.49;101872.03;5103774;28;20016;-50
2023/08/17 05:08:09;;;;;;;4.70;2.40;;;;;;;17.07;89.52;101888.25;5099359;27;20047;-50
2023/08/17 05:10:34;;;;;;;6.50;2.53;;;;;;;17.05;90.00;101878.63;5095984;28;20028;-49
2023/08/17 05:12:59;;;;;;;7.45;2.83;;;;;;;17.09;89.76;101874.72;5098532;28;20477;-50
2023/08/17 05:15:25;;;;;;;5.88;2.40;;;;;;;17.12;89.74;101877.09;5096861;28;20096;-51
2023/08/17 05:17:50;;;;;;;4.65;2.58;;;;;;;17.12;89.95;101866.34;5098592;28;20036;-51
2023/08/17 05:20:15;;;;;;;7.13;2.90;;;;;;;17.10;89.98;101871.91;5100667;28;20020;-51
2023/08/17 05:22:41;;;;;;;9.32;2.65;;;;;;;17.08;89.43;101868.47;5101427;28;20026;-50
2023/08/17 05:25:07;;;;;;;5.25;2.33;;;;;;;17.08;89.88;101879.22;5096123;28;20054;-51
2023/08/17 05:27:32;;;;;;;5.47;2.70;;;;;;;17.09;89.77;101872.88;5099795;28;20066;-51
2023/08/17 05:29:57;;;;;;;6.13;2.38;;;;;;;17.11;89.76;101873.56;5105244;28;20027;-52
2023/08/17 05:32:23;;;;;;;7.50;3.20;;;;;;;17.13;89.80;101870.75;5097204;28;20027;-54
2023/08/17 05:34:48;;;;;;;7.38;3.05;;;;;;;17.14;90.74;101873.31;5095169;28;20106;-52
2023/08/17 05:37:15;;;;;;;6.60;2.88;;;;;;;17.14;89.91;101870.63;5098796;28;20059;-51
2023/08/17 05:39:40;;;;;;;8.43;2.70;;;;;;;17.11;89.90;101868.22;5098657;28;20023;-51
2023/08/17 05:42:06;;;;;;;6.88;2.78;;;;;;;17.13;89.57;101873.44;5098510;28;20054;-51
2023/08/17 05:44:32;;;;;;;6.47;2.67;;;;;;;17.17;90.00;101874.88;5101993;28;20034;-50
2023/08/17 05:46:57;;;;;;;7.13;3.15;;;;;;;17.16;89.64;101874.00;5102783;28;20398;-51
2023/08/17 05:49:23;;;;;;;7.05;3.35;;;;;;;17.17;90.07;101874.88;5103069;28;20369;-50
2023/08/17 05:51:48;;;;;;;10.25;3.08;;;;;;;17.17;89.86;101878.41;5097095;28;20028;-51
2023/08/17 05:54:13;;;;;;;9.50;2.60;;;;;;;17.20;89.74;101880.81;5102189;28;20058;-49
2023/08/17 05:56:44;;;;;;;7.80;2.90;;;;;;;17.27;89.99;101885.63;5100877;28;20020;-51
2023/08/17 05:59:09;;;;;;;5.97;2.50;;;;;;;17.31;90.23;101876.34;5093219;28;20036;-50
2023/08/17 06:01:35;;;;;;;6.70;2.80;;;;;;;17.32;89.90;101876.19;5096847;28;20481;-50
2023/08/17 06:04:01;;;;;;;6.50;2.67;;;;;;;17.38;90.15;101883.69;5094888;28;20112;-50
2023/08/17 06:06:26;;;;;;;6.38;2.85;;;;;;;17.43;89.68;101880.59;5089685;28;20097;-51
2023/08/17 06:08:52;;;;;;;7.07;2.97;;;;;;;17.47;89.46;101884.72;5080855;28;20035;-50
2023/08/17 06:11:17;;;;;;;6.10;2.90;;;;;;;17.52;88.92;101885.16;5097987;28;20035;-50
2023/08/17 06:13:42;;;;;;;7.57;3.30;;;;;;;17.54;89.00;101890.41;5095765;28;20032;-50
2023/08/17 06:16:07;;;;;;;5.93;3.00;;;;;;;17.62;89.16;101900.44;5098496;28;20359;-50
2023/08/17 06:18:34;;;;;;;8.80;3.10;;;;;;;17.65;89.03;101903.72;5101615;28;20027;-52
2023/08/17 06:20:59;;;;;;;6.55;3.33;;;;;;;17.66;88.38;101897.34;5097221;28;20489;-48
2023/08/17 06:23:25;;;;;;;7.88;2.90;;;;;;;17.70;88.98;101890.72;5096323;28;20039;-47
2023/08/17 06:25:50;;;;;;;3.95;2.70;;;;;;;17.78;89.21;101897.22;5093341;28;20040;-49
2023/08/17 06:28:15;;;;;;;7.55;3.58;;;;;;;17.86;88.64;101892.00;5100372;28;20419;-50
2023/08/17 06:30:41;;;;;;;9.35;3.90;;;;;;;17.88;88.57;101890.91;5100281;28;20032;-49
2023/08/17 06:33:06;;;;;;;8.60;3.00;;;;;;;17.94;88.27;101893.03;5100521;28;20114;-49
2023/08/17 06:35:31;;;;;;;8.20;2.80;;;;;;;17.95;88.14;101885.81;5095034;28;20018;-50
2023/08/17 06:37:57;;;;;;;4.85;3.22;;;;;;;17.94;87.56;101894.88;5100282;28;20458;-49
2023/08/17 06:40:26;;;;;;;7.50;3.35;;;;;;;17.94;87.42;101898.41;5092070;28;20023;-48
2023/08/17 06:42:53;;;;;;;8.50;3.13;;;;;;;17.96;88.80;101902.81;5102900;28;20035;-49
2023/08/17 06:45:19;;;;;;;10.32;3.30;;;;;;;18.04;88.20;101908.34;5094403;28;20027;-50
2023/08/17 06:47:45;;;;;;;6.85;2.70;;;;;;;18.14;88.12;101898.41;5096648;28;20444;-49
2023/08/17 06:50:11;;;;;;;5.75;3.20;;;;;;;18.22;88.26;101905.75;5096327;28;20374;-48
2023/08/17 06:52:36;;;;;;;7.78;3.17;;;;;;;18.27;87.05;101899.00;5094835;28;20031;-48
2023/08/17 06:55:02;;;;;;;5.28;3.42;;;;;;;18.38;86.67;101902.50;5093710;28;20405;-49
2023/08/17 06:57:28;;;;;;;9.85;3.65;;;;;;;18.43;85.92;101901.09;5098624;28;20029;-50
2023/08/17 06:59:54;;;;;;;8.05;3.85;;;;;;;18.43;86.22;101897.53;5100188;28;20031;-50
2023/08/17 07:02:20;;;;;;;9.10;2.97;;;;;;;18.44;85.27;101905.47;5096796;28;20055;-48
2023/08/17 07:04:45;;;;;;;7.53;3.25;;;;;;;18.40;85.26;101889.75;5099692;28;20028;-50
2023/08/17 07:07:11;;;;;;;6.68;3.30;;;;;;;18.49;86.66;101899.69;5101462;28;20035;-51
2023/08/17 07:09:36;;;;;;;9.82;3.20;;;;;;;18.52;85.87;101898.53;5099891;28;20386;-49
2023/08/17 07:12:02;;;;;;;9.52;3.10;;;;;;;18.59;86.12;101892.44;5098267;28;20020;-48
2023/08/17 07:14:28;;;;;;;5.85;3.33;;;;;;;18.61;86.13;101897.66;5098842;28;20024;-49
2023/08/17 07:16:53;;;;;;;7.35;3.40;;;;;;;18.56;85.15;101908.03;5101203;28;20028;-49
2023/08/17 07:19:18;;;;;;;7.15;3.35;;;;;;;18.58;85.74;101901.47;5087503;28;20378;-49
2023/08/17 07:21:43;;;;;;;9.65;3.25;;;;;;;18.60;85.97;101901.34;5095449;28;20040;-48
2023/08/17 07:24:13;;;;;;;7.43;3.20;;;;;;;18.63;85.75;101901.91;5094890;28;20062;-49
2023/08/17 07:26:39;;;;;;;6.28;3.53;;;;;;;18.64;85.33;101908.16;5092495;28;20109;-49
2023/08/17 07:29:04;;;;;;;5.82;3.15;;;;;;;18.66;85.74;101898.91;5099711;28;20036;-49
2023/08/17 07:31:30;;;;;;;8.73;3.90;;;;;;;18.72;84.91;101902.03;5096927;28;20012;-48
2023/08/17 07:33:55;;;;;;;6.47;3.10;;;;;;;18.70;85.48;101904.03;5093915;28;20028;-49
2023/08/17 07:36:21;;;;;;;5.95;3.35;;;;;;;18.76;85.18;101908.81;5097480;28;20031;-51
2023/08/17 07:38:46;;;;;;;6.30;3.38;;;;;;;18.82;85.59;101897.50;5091294;28;20394;-51
2023/08/17 07:41:11;;;;;;;6.55;3.60;;;;;;;18.88;84.86;101898.78;5104768;28;20020;-51
2023/08/17 07:43:37;;;;;;;11.13;4.35;;;;;;;18.91;85.23;101907.41;5101294;28;20027;-50
2023/08/17 07:46:02;;;;;;;5.45;3.50;;;;;;;18.95;84.18;101902.56;5106860;28;20044;-54
2023/08/17 07:48:29;;;;;;;5.68;3.42;;;;;;;18.97;84.89;101906.81;5111301;27;20032;-53
2023/08/17 07:50:54;;;;;;;8.45;3.80;;;;;;;19.00;83.67;101906.53;5105634;28;20130;-57
2023/08/17 07:53:20;;;;;;;8.65;3.63;;;;;;;19.09;84.78;101909.34;5097086;28;20190;-57
2023/08/17 07:55:45;;;;;;;7.38;3.53;;;;;;;19.17;84.41;101914.84;5102358;28;20122;-53
2023/08/17 07:58:11;;;;;;;4.60;3.42;;;;;;;19.22;83.61;101912.53;5098941;28;20047;-52
2023/08/17 08:00:36;;;;;;;9.73;3.80;;;;;;;19.29;83.49;101915.50;5109326;28;20081;-53
2023/08/17 08:03:02;;;;;;;10.95;3.58;;;;;;;19.32;82.55;101909.81;5104065;28;20480;-54
2023/08/17 08:05:27;;;;;;;5.38;3.45;;;;;;;19.33;82.36;101909.63;5108148;28;20031;-51
2023/08/17 08:07:52;;;;;;;6.72;3.25;;;;;;;19.38;82.29;101910.06;5105616;28;20020;-51
2023/08/17 08:10:18;;;;;;;6.53;3.70;;;;;;;19.40;83.44;101905.38;5104253;28;20043;-52
2023/08/17 08:12:43;;;;;;;7.75;3.22;;;;;;;19.42;82.14;101908.75;5067017;28;20502;-54
2023/08/17 08:15:09;;;;;;;8.10;3.55;;;;;;;19.48;82.69;101906.44;5100052;28;20024;-51
2023/08/17 08:17:35;;;;;;;6.75;3.35;;;;;;;19.54;82.09;101903.16;5101119;28;20549;-51
2023/08/17 08:20:00;;;;;;;5.47;3.20;;;;;;;19.59;81.28;101904.41;5103109;28;20068;-51
2023/08/17 08:22:26;;;;;;;6.55;3.20;;;;;;;19.63;80.93;101899.53;5095093;28;20028;-53
2023/08/17 08:24:51;;;;;;;10.95;3.20;;;;;;;19.68;81.13;101902.63;5102487;28;20115;-51
2023/08/17 08:27:16;;;;;;;6.32;3.25;;;;;;;19.69;80.55;101901.63;5095546;28;20408;-53
2023/08/17 08:29:41;;;;;;;6.28;3.42;;;;;;;19.76;79.76;101908.16;5103327;28;20091;-50
2023/08/17 08:32:07;;;;;;;7.38;3.10;;;;;;;19.77;80.39;101909.00;5098073;28;20016;-51
2023/08/17 08:34:32;;;;;;;6.10;3.20;;;;;;;19.76;79.19;101907.31;5102021;28;20024;-53
2023/08/17 08:36:57;;;;;;;8.98;3.55;;;;;;;19.72;79.84;101908.59;5100743;28;20060;-51
2023/08/17 08:39:25;;;;;;;8.10;3.42;;;;;;;19.74;80.58;101915.50;5101650;28;20030;-53
2023/08/17 08:41:50;;;;;;;9.77;3.38;;;;;;;19.78;80.35;101914.25;5099111;28;20599;-51
2023/08/17 08:44:16;;;;;;;9.93;3.50;;;;;;;19.83;79.86;101912.94;5101426;28;20088;-52
2023/08/17 08:46:44;;;;;;;6.50;3.40;;;;;;;19.75;79.57;101913.69;5092640;28;20140;-50
2023/08/17 08:49:11;;;;;;;5.85;3.40;;;;;;;19.80;79.29;101911.41;5098518;28;20032;-52
2023/08/17 08:51:43;;;;;;;7.45;3.08;;;;;;;19.77;79.86;101903.63;5100104;28;20063;-50
2023/08/17 08:54:13;;;;;;;10.05;3.63;;;;;;;19.74;79.28;101903.88;5095296;28;20031;-50
2023/08/17 08:56:39;;;;;;;9.73;3.88;;;;;;;19.76;79.93;101902.75;5101480;28;20031;-53
2023/08/17 08:59:05;;;;;;;8.30;3.78;;;;;;;19.74;79.74;101906.59;5095998;28;20028;-50
2023/08/17 09:01:31;;;;;;;8.80;3.80;;;;;;;19.69;80.09;101901.63;5098779;28;20553;-50
2023/08/17 09:04:00;;;;;;;7.00;3.17;;;;;;;19.69;80.48;101888.16;5101512;28;20028;-50
2023/08/17 09:06:27;;;;;;;5.68;3.45;;;;;;;19.71;80.06;101891.56;5098535;28;20024;-50
2023/08/17 09:08:52;;;;;;;6.55;3.53;;;;;;;19.70;81.66;101891.69;5099892;28;20039;-51
2023/08/17 09:11:18;;;;;;;7.82;3.70;;;;;;;19.67;81.73;101895.56;5098298;28;20036;-51
2023/08/17 09:13:43;;;;;;;9.40;3.38;;;;;;;19.66;82.81;101888.47;5099826;28;20035;-51
2023/08/17 09:16:08;;;;;;;5.80;3.38;;;;;;;19.72;82.12;101890.56;5096351;28;20027;-51
2023/08/17 09:18:34;;;;;;;9.30;4.20;;;;;;;19.75;81.11;101886.72;5100076;28;20394;-51
2023/08/17 09:21:00;;;;;;;7.35;4.00;;;;;;;19.71;80.14;101883.47;5091106;28;20301;-51
2023/08/17 09:23:25;;;;;;;9.60;4.18;;;;;;;19.71;80.36;101901.50;5098565;28;20383;-50
2023/08/17 09:25:59;;;;;;;8.55;4.07;;;;;;;19.66;80.71;101898.41;5103326;28;20027;-51
2023/08/17 09:28:25;;;;;;;12.07;4.32;;;;;;;19.65;80.28;101896.69;5092195;28;20031;-50
2023/08/17 09:30:52;;;;;;;8.45;3.58;;;;;;;19.65;81.08;101897.56;5100567;28;20024;-50
2023/08/17 09:33:18;;;;;;;12.30;4.20;;;;;;;19.60;80.09;101895.31;5101089;28;20024;-51
2023/08/17 09:35:44;;;;;;;11.25;4.78;;;;;;;19.55;80.43;101894.06;5094673;28;20035;-51
2023/08/17 09:38:09;;;;;;;10.65;4.32;;;;;;;19.53;79.84;101891.50;5102178;28;20032;-50
2023/08/17 09:40:34;;;;;;;11.77;4.80;;;;;;;19.52;80.59;101886.31;5103155;28;20072;-51
2023/08/17 09:43:00;;;;;;;15.85;5.55;;;;;;;19.48;80.81;101891.13;5104579;28;20077;-51
2023/08/17 09:45:27;;;;;;;13.20;5.43;;;;;;;19.42;80.89;101881.81;5095953;28;20051;-52
2023/08/17 09:47:52;;;;;;;14.60;5.80;;;;;;;19.44;80.69;101883.50;5086923;28;20084;-51
2023/08/17 09:50:22;;;;;;;14.68;5.10;;;;;;;19.44;81.52;101892.44;5099571;28;20419;-52
2023/08/17 09:52:47;;;;;;;13.80;5.65;;;;;;;19.45;81.10;101879.81;5101971;28;20027;-53
2023/08/17 09:55:14;;;;;;;13.30;5.80;;;;;;;19.42;81.72;101889.88;5088698;28;20381;-50
2023/08/17 09:57:41;;;;;;;10.77;5.40;;;;;;;19.45;80.93;101879.81;5099752;28;20110;-51
2023/08/17 10:00:07;;;;;;;13.45;5.97;;;;;;;19.39;81.20;101895.56;5098726;28;20035;-50
2023/08/17 10:02:33;;;;;;;13.65;7.05;;;;;;;19.40;81.66;101885.63;5096949;28;20020;-49
2023/08/17 10:05:00;;;;;;;14.77;6.30;;;;;;;19.38;81.37;101880.44;5094077;28;20028;-50
2023/08/17 10:07:30;;;;;;;17.25;6.55;;;;;;;19.33;81.98;101873.78;5093075;28;20080;-51
2023/08/17 10:10:04;;;;;;;14.80;6.68;;;;;;;19.33;81.53;101877.31;5090248;28;20031;-51
2023/08/17 10:12:36;;;;;;;16.77;7.45;;;;;;;19.32;81.93;101872.09;5095977;28;20024;-52
2023/08/17 10:15:10;;;;;;;9.95;5.68;;;;;;;19.42;82.28;101864.81;5084896;28;20028;-50
2023/08/17 10:17:43;;;;;;;11.43;6.40;;;;;;;19.47;82.36;101858.94;5091908;28;20035;-53
2023/08/17 10:20:09;;;;;;;16.17;6.53;;;;;;;19.54;82.41;101865.44;5094012;28;20032;-51
2023/08/17 10:23:18;;;;;;;12.70;6.13;;;;;;;19.60;81.50;101870.19;5086366;28;20718;-50
2023/08/17 10:25:45;;;;;;;13.43;6.43;;;;;;;19.57;82.21;101865.13;5093392;28;20385;-51
2023/08/17 10:28:11;;;;;;;12.75;6.82;;;;;;;19.53;81.95;101861.88;5100379;28;20462;-51
2023/08/17 10:30:38;;;;;;;14.50;6.07;;;;;;;19.50;81.79;101859.50;5099309;28;20019;-52
2023/08/17 10:33:05;;;;;;;13.30;5.82;;;;;;;19.55;82.63;101854.50;5095802;28;20028;-53
2023/08/17 10:35:32;;;;;;;11.57;5.70;;;;;;;19.58;82.98;101866.81;5100383;28;20119;-53
2023/08/17 10:37:58;;;;;;;9.45;5.82;;;;;;;19.61;82.57;101858.44;5094328;28;20028;-51
2023/08/17 10:40:28;;;;;;;12.48;6.25;;;;;;;19.60;82.48;101862.13;5099942;28;20439;-51
2023/08/17 10:42:56;;;;;;;9.48;6.00;;;;;;;19.67;82.41;101874.00;5099512;28;20060;-50
2023/08/17 10:45:26;;;;;;;12.15;6.47;;;;;;;19.68;81.87;101869.44;5097100;28;20028;-51
2023/08/17 10:48:05;;;;;;;12.65;6.72;;;;;;;19.68;82.71;101864.91;5100064;28;20043;-50
2023/08/17 10:50:30;;;;;;;13.40;6.18;;;;;;;19.68;82.59;101859.50;5096998;28;20027;-50
2023/08/17 10:52:55;;;;;;;13.27;6.88;;;;;;;19.78;82.17;101857.66;5097392;28;20123;-51
2023/08/17 10:55:39;;;;;;;13.68;6.22;;;;;;;19.80;82.35;101865.59;5114752;27;20537;-53
2023/08/17 10:58:08;;;;;;;13.65;6.75;;;;;;;19.76;82.36;101866.88;5095494;28;20074;-55
2023/08/17 11:00:39;;;;;;;15.07;6.63;;;;;;;19.79;82.16;101853.09;5098394;28;20024;-50
2023/08/17 11:03:08;;;;;;;11.13;6.57;;;;;;;19.75;81.84;101852.56;5103242;28;20027;-50
2023/08/17 11:05:44;;;;;;;12.07;6.35;;;;;;;19.80;82.57;101857.50;5097964;28;20024;-51
2023/08/17 11:08:13;;;;;;;13.63;6.50;;;;;;;19.87;82.82;101852.34;5093657;28;20490;-51
2023/08/17 11:10:39;;;;;;;17.00;7.55;;;;;;;19.91;82.48;101853.72;5095182;28;20016;-51
2023/08/17 11:13:06;;;;;;;14.52;7.93;;;;;;;19.89;81.58;101855.72;5099266;28;20020;-50
2023/08/17 11:15:42;;;;;;;12.43;8.00;;;;;;;19.94;82.07;101865.03;5096951;28;20381;-51
2023/08/17 11:18:09;;;;;;;13.23;8.10;;;;;;;19.93;81.73;101866.03;5089625;28;20032;-53
2023/08/17 11:20:36;;;;;;;12.85;7.28;;;;;;;19.92;81.88;101867.03;5091358;28;20024;-51